createdAt,value
2018-10-12T00:01:30.510Z,23.70
2018-10-12T00:03:59.014Z,24.37
2018-10-12T00:06:27.532Z,23.93
2018-10-12T00:08:56.063Z,22.93
2018-10-12T00:11:24.570Z,23.63
2018-10-12T00:13:53.104Z,20.97
2018-10-12T00:16:21.607Z,20.77
2018-10-12T00:18:50.139Z,20.90
2018-10-12T00:21:18.657Z,22.77
2018-10-12T00:23:47.189Z,23.70
2018-10-12T00:26:15.710Z,23.37
2018-10-12T00:28:44.244Z,22.70
2018-10-12T00:31:12.757Z,22.30
2018-10-12T00:33:41.305Z,21.57
2018-10-12T00:36:09.834Z,19.23
2018-10-12T00:38:38.386Z,21.73
2018-10-12T00:41:07.371Z,22.60
2018-10-12T00:43:35.899Z,23.23
2018-10-12T00:46:04.422Z,23.03
2018-10-12T00:48:32.959Z,22.37
2018-10-12T00:51:01.459Z,22.27
2018-10-12T00:53:29.982Z,22.47
2018-10-12T00:55:58.485Z,22.27
2018-10-12T00:58:27.022Z,20.90
2018-10-12T01:00:55.525Z,23.53
2018-10-12T01:03:24.061Z,23.30
2018-10-12T01:05:52.603Z,23.30
2018-10-12T01:08:21.174Z,22.23
2018-10-12T01:10:49.684Z,22.00
2018-10-12T01:13:18.246Z,21.10
2018-10-12T01:15:46.756Z,21.37
2018-10-12T01:18:15.297Z,21.73
2018-10-12T01:20:43.838Z,20.43
2018-10-12T01:23:12.410Z,19.97
2018-10-12T01:25:40.934Z,19.10
2018-10-12T01:28:09.477Z,19.60
2018-10-12T01:30:38.023Z,19.67
2018-10-12T01:33:07.165Z,20.30
2018-10-12T01:35:36.541Z,20.10
2018-10-12T01:38:05.100Z,19.30
2018-10-12T01:40:33.850Z,19.80
2018-10-12T01:43:02.777Z,20.47
2018-10-12T01:45:31.565Z,21.80
2018-10-12T01:48:00.127Z,21.93
2018-10-12T01:50:28.666Z,23.27
2018-10-12T01:52:57.178Z,23.90
2018-10-12T01:55:25.752Z,23.53
2018-10-12T01:57:54.270Z,21.60
2018-10-12T02:00:22.863Z,21.40
2018-10-12T02:02:51.382Z,21.40
2018-10-12T02:05:19.925Z,21.53
2018-10-12T02:07:48.425Z,20.50
2018-10-12T02:10:24.027Z,20.57
2018-10-12T02:12:52.535Z,20.90
2018-10-12T02:15:21.114Z,20.37
2018-10-12T02:17:49.640Z,20.40
2018-10-12T02:20:18.193Z,19.20
2018-10-12T02:22:46.693Z,18.97
2018-10-12T02:25:15.222Z,20.23
2018-10-12T02:27:43.756Z,21.03
2018-10-12T02:30:12.295Z,20.23
2018-10-12T02:32:40.812Z,20.57
2018-10-12T02:35:09.403Z,20.90
2018-10-12T02:37:37.938Z,19.60
2018-10-12T02:40:06.505Z,20.43
2018-10-12T02:42:35.018Z,20.53
2018-10-12T02:45:03.580Z,21.20
2018-10-12T02:47:32.082Z,19.83
2018-10-12T02:50:00.621Z,21.90
2018-10-12T02:52:29.126Z,22.60
2018-10-12T02:54:57.665Z,22.07
2018-10-12T02:57:26.169Z,22.80
2018-10-12T02:59:54.708Z,22.80
2018-10-12T03:02:23.217Z,22.40
2018-10-12T03:04:51.774Z,20.00
2018-10-12T03:07:20.284Z,21.40
2018-10-12T03:09:48.845Z,20.90
2018-10-12T03:12:17.368Z,20.00
2018-10-12T03:14:45.918Z,20.30
2018-10-12T03:17:14.443Z,21.87
2018-10-12T03:19:43.025Z,22.23
2018-10-12T03:22:11.897Z,20.23
2018-10-12T03:24:40.427Z,18.77
2018-10-12T03:27:08.982Z,18.73
2018-10-12T03:29:37.538Z,20.57
2018-10-12T03:32:06.294Z,21.17
2018-10-12T03:34:34.981Z,19.50
2018-10-12T03:37:03.540Z,21.67
2018-10-12T03:39:32.094Z,22.73
2018-10-12T03:42:00.638Z,22.00
2018-10-12T03:44:29.189Z,23.40
2018-10-12T03:46:57.735Z,22.30
2018-10-12T03:49:26.306Z,20.90
2018-10-12T03:51:54.858Z,22.27
2018-10-12T03:54:23.414Z,19.90
2018-10-12T03:56:51.925Z,20.43
2018-10-12T03:59:20.461Z,22.20
2018-10-12T04:01:48.969Z,19.53
2018-10-12T04:04:17.503Z,20.57
2018-10-12T04:06:46.017Z,21.07
2018-10-12T04:09:14.565Z,23.53
2018-10-12T04:11:43.079Z,24.00
2018-10-12T04:14:11.618Z,25.57
2018-10-12T04:16:40.122Z,24.03
2018-10-12T04:19:09.018Z,24.73
2018-10-12T04:21:37.526Z,22.80
2018-10-12T04:24:06.047Z,24.70
2018-10-12T04:26:34.587Z,22.87
2018-10-12T04:29:03.093Z,24.00
2018-10-12T04:31:31.626Z,22.27
2018-10-12T04:34:00.159Z,23.10
2018-10-12T04:36:28.733Z,21.57
2018-10-12T04:39:08.501Z,22.57
2018-10-12T04:41:37.057Z,21.23
2018-10-12T04:44:05.569Z,21.43
2018-10-12T04:46:43.547Z,21.40
2018-10-12T04:49:13.864Z,24.03
2018-10-12T04:51:56.919Z,22.77
2018-10-12T04:54:25.967Z,20.57
2018-10-12T04:56:54.527Z,20.03
2018-10-12T04:59:23.095Z,19.80
2018-10-12T05:01:51.693Z,19.40
2018-10-12T05:04:20.340Z,20.50
2018-10-12T05:06:48.911Z,20.03
2018-10-12T05:09:17.437Z,20.50
2018-10-12T05:11:46.032Z,20.13
2018-10-12T05:14:14.569Z,19.83
2018-10-12T05:16:43.114Z,19.87
2018-10-12T05:19:11.633Z,22.47
2018-10-12T05:21:40.395Z,22.23
2018-10-12T05:24:08.938Z,23.70
2018-10-12T05:26:37.501Z,22.40
2018-10-12T05:29:06.125Z,20.67
2018-10-12T05:31:34.670Z,20.37
2018-10-12T05:34:03.238Z,18.77
2018-10-12T05:36:31.760Z,19.13
2018-10-12T05:39:00.294Z,19.40
2018-10-12T05:41:28.806Z,21.00
2018-10-12T05:43:57.335Z,19.97
2018-10-12T05:46:25.853Z,20.37
2018-10-12T05:49:05.542Z,23.10
2018-10-12T05:51:34.080Z,20.83
2018-10-12T05:54:02.642Z,21.80
2018-10-12T05:56:33.134Z,21.83
2018-10-12T05:59:01.871Z,21.70
2018-10-12T06:01:30.534Z,22.20
2018-10-12T06:03:59.282Z,21.87
2018-10-12T06:06:28.065Z,28.03
2018-10-12T06:08:56.606Z,22.50
2018-10-12T06:11:25.189Z,23.83
2018-10-12T06:13:53.826Z,24.10
2018-10-12T06:16:22.698Z,25.13
2018-10-12T06:18:51.386Z,25.27
2018-10-12T06:21:19.898Z,26.10
2018-10-12T06:23:48.429Z,24.30
2018-10-12T06:26:16.963Z,23.40
2018-10-12T06:28:45.509Z,24.47
2018-10-12T06:31:14.017Z,23.53
2018-10-12T06:33:42.523Z,24.73
2018-10-12T06:36:11.086Z,24.10
2018-10-12T06:38:39.681Z,25.30
2018-10-12T06:41:08.276Z,23.50
2018-10-12T06:43:36.781Z,25.10
2018-10-12T06:46:05.345Z,24.77
2018-10-12T06:48:33.879Z,24.97
2018-10-12T06:51:02.428Z,25.70
2018-10-12T06:53:30.934Z,24.27
2018-10-12T06:55:59.472Z,24.47
2018-10-12T06:58:27.995Z,24.10
2018-10-12T07:00:56.547Z,24.20
2018-10-12T07:03:25.711Z,24.77
2018-10-12T07:05:53.789Z,23.93
2018-10-12T07:08:22.315Z,23.47
2018-10-12T07:10:50.866Z,24.30
2018-10-12T07:13:19.385Z,24.23
2018-10-12T07:15:47.924Z,23.80
2018-10-12T07:18:16.437Z,25.53
2018-10-12T07:20:44.970Z,23.60
2018-10-12T07:23:13.609Z,23.10
2018-10-12T07:25:42.199Z,24.63
2018-10-12T07:28:10.686Z,25.00
2018-10-12T07:30:39.226Z,24.00
2018-10-12T07:33:07.748Z,23.23
2018-10-12T07:35:36.301Z,22.90
2018-10-12T07:38:04.817Z,24.10
2018-10-12T07:40:33.360Z,22.93
2018-10-12T07:43:01.878Z,24.40
2018-10-12T07:45:30.373Z,22.37
2018-10-12T07:47:58.903Z,23.50
2018-10-12T07:50:27.499Z,23.17
2018-10-12T07:52:56.031Z,22.10
2018-10-12T07:55:24.554Z,23.03
2018-10-12T07:57:53.097Z,22.60
2018-10-12T08:00:21.736Z,23.50
2018-10-12T08:02:50.176Z,21.10
2018-10-12T08:05:18.682Z,20.80
2018-10-12T08:07:47.230Z,21.77
2018-10-12T08:10:15.743Z,21.37
2018-10-12T08:12:44.274Z,20.40
2018-10-12T08:15:12.796Z,21.50
2018-10-12T08:17:41.383Z,20.93
2018-10-12T08:20:10.354Z,20.60
2018-10-12T08:22:38.879Z,20.97
2018-10-12T08:25:07.429Z,21.00
2018-10-12T08:27:35.985Z,21.47
2018-10-12T08:30:04.553Z,19.87
2018-10-12T08:32:33.121Z,20.87
2018-10-12T08:35:01.644Z,19.30
2018-10-12T08:37:30.165Z,20.60
2018-10-12T08:39:58.671Z,19.00
2018-10-12T08:42:27.231Z,20.07
2018-10-12T08:44:55.753Z,19.30
2018-10-12T08:47:24.306Z,20.93
2018-10-12T08:49:52.821Z,18.43
2018-10-12T08:52:21.397Z,19.40
2018-10-12T08:54:49.918Z,17.70
2018-10-12T08:57:18.438Z,18.07
2018-10-12T08:59:46.983Z,18.83
2018-10-12T09:02:15.502Z,17.70
2018-10-12T09:04:44.043Z,17.03
2018-10-12T09:07:12.547Z,17.17
2018-10-12T09:09:41.082Z,17.50
2018-10-12T09:12:09.631Z,16.70
2018-10-12T09:14:38.175Z,17.37
2018-10-12T09:17:06.990Z,16.37
2018-10-12T09:19:35.540Z,16.53
2018-10-12T09:22:04.078Z,17.10
2018-10-12T09:24:32.706Z,16.67
2018-10-12T09:27:01.246Z,18.10
2018-10-12T09:29:29.788Z,16.30
2018-10-12T09:31:58.311Z,16.13
2018-10-12T09:34:26.875Z,16.80
2018-10-12T09:36:55.433Z,15.70
2018-10-12T09:39:23.962Z,17.07
2018-10-12T09:41:52.493Z,16.10
2018-10-12T09:44:21.029Z,15.20
2018-10-12T09:46:50.074Z,14.60
2018-10-12T09:49:18.633Z,14.80
2018-10-12T09:51:47.161Z,14.00
2018-10-12T09:54:15.711Z,13.97
2018-10-12T09:56:48.365Z,13.93
2018-10-12T09:59:16.914Z,13.53
2018-10-12T10:01:50.810Z,13.97
2018-10-12T10:04:23.434Z,11.63
2018-10-12T10:06:51.962Z,13.40
2018-10-12T10:09:20.500Z,12.57
2018-10-12T10:11:49.400Z,13.90
2018-10-12T10:14:17.589Z,13.23
2018-10-12T10:16:46.129Z,12.43
2018-10-12T10:19:14.858Z,13.73
2018-10-12T10:21:43.417Z,14.17
2018-10-12T10:24:11.959Z,13.10
2018-10-12T10:26:40.499Z,11.87
2018-10-12T10:29:09.091Z,12.13
2018-10-12T10:31:37.681Z,11.30
2018-10-12T10:34:06.246Z,10.60
2018-10-12T10:36:34.812Z,12.07
2018-10-12T10:39:03.852Z,11.90
2018-10-12T10:41:32.387Z,10.67
2018-10-12T10:44:00.903Z,11.30
2018-10-12T10:46:29.594Z,10.30
2018-10-12T10:48:58.067Z,11.70
2018-10-12T10:51:26.632Z,11.30
2018-10-12T10:53:55.158Z,10.57
2018-10-12T10:56:23.710Z,10.37
2018-10-12T10:58:52.213Z,10.40
2018-10-12T11:01:20.761Z,10.73
2018-10-12T11:03:49.274Z,10.70
2018-10-12T11:06:17.864Z,9.50
2018-10-12T11:08:46.349Z,9.33
2018-10-12T11:11:14.955Z,10.20
2018-10-12T11:13:43.474Z,9.03
2018-10-12T11:16:11.983Z,9.23
2018-10-12T11:18:40.524Z,9.07
2018-10-12T11:21:09.042Z,10.30
2018-10-12T11:23:37.553Z,9.00
2018-10-12T11:26:06.105Z,9.23
2018-10-12T11:28:34.646Z,8.70
2018-10-12T11:31:03.146Z,8.53
2018-10-12T11:33:31.976Z,8.20
2018-10-12T11:36:00.264Z,9.57
2018-10-12T11:38:28.808Z,10.10
2018-10-12T11:40:57.331Z,9.00
2018-10-12T11:43:31.140Z,9.00
2018-10-12T11:46:00.615Z,8.17
2018-10-12T11:48:29.173Z,8.30
2018-10-12T11:50:58.028Z,8.23
2018-10-12T11:53:26.578Z,7.90
2018-10-12T11:55:55.145Z,8.07
2018-10-12T11:58:24.058Z,8.20
2018-10-12T12:00:52.646Z,8.43
2018-10-12T12:03:21.228Z,8.30
2018-10-12T12:05:49.740Z,8.17
2018-10-12T12:08:18.240Z,7.50
2018-10-12T12:10:46.786Z,8.17
2018-10-12T12:13:15.316Z,7.87
2018-10-12T12:15:43.866Z,7.43
2018-10-12T12:18:12.416Z,8.00
2018-10-12T12:20:40.946Z,8.27
2018-10-12T12:23:09.455Z,8.47
2018-10-12T12:25:38.002Z,7.90
2018-10-12T12:28:06.656Z,8.20
2018-10-12T12:30:35.183Z,8.50
2018-10-12T12:33:03.700Z,8.57
2018-10-12T12:35:32.561Z,8.83
2018-10-12T12:38:00.786Z,9.70
2018-10-12T12:40:29.330Z,7.87
2018-10-12T12:42:57.843Z,8.57
2018-10-12T12:45:26.368Z,9.00
2018-10-12T12:47:55.055Z,9.70
2018-10-12T12:50:23.456Z,9.20
2018-10-12T12:52:51.977Z,8.70
2018-10-12T12:55:20.611Z,8.00
2018-10-12T12:57:49.120Z,9.10
2018-10-12T13:00:17.725Z,8.10
2018-10-12T13:02:46.188Z,8.33
2018-10-12T13:05:14.710Z,8.70
2018-10-12T13:07:43.229Z,7.63
2018-10-12T13:10:11.741Z,8.43
2018-10-12T13:12:40.245Z,7.90
2018-10-12T13:15:08.797Z,8.87
2018-10-12T13:17:37.286Z,7.37
2018-10-12T13:20:05.853Z,8.13
2018-10-12T13:22:34.378Z,7.60
2018-10-12T13:25:02.903Z,6.93
2018-10-12T13:27:31.417Z,6.80
2018-10-12T13:29:59.964Z,6.90
2018-10-12T13:32:28.489Z,6.80
2018-10-12T13:34:57.058Z,6.80
2018-10-12T13:37:25.645Z,7.00
2018-10-12T13:39:54.208Z,7.00
2018-10-12T13:42:22.752Z,6.90
2018-10-12T13:44:51.298Z,7.17
2018-10-12T13:47:19.973Z,6.10
2018-10-12T13:49:48.534Z,6.80
2018-10-12T13:52:17.042Z,6.20
2018-10-12T13:54:45.566Z,5.90
2018-10-12T13:57:14.077Z,6.30
2018-10-12T13:59:42.604Z,6.17
2018-10-12T14:02:11.113Z,6.60
2018-10-12T14:04:39.633Z,6.13
2018-10-12T14:07:08.128Z,6.23
2018-10-12T14:09:36.661Z,5.47
2018-10-12T14:12:05.181Z,6.63
2018-10-12T14:14:33.702Z,5.63
2018-10-12T14:17:02.218Z,5.13
2018-10-12T14:19:30.813Z,5.10
2018-10-12T14:21:59.283Z,5.07
2018-10-12T14:24:27.781Z,4.40
2018-10-12T14:26:56.364Z,4.70
2018-10-12T14:29:24.832Z,4.77
2018-10-12T14:31:53.362Z,5.43
2018-10-12T14:34:21.883Z,5.00
2018-10-12T14:36:50.417Z,5.07
2018-10-12T14:39:18.913Z,4.37
2018-10-12T14:41:47.441Z,4.40
2018-10-12T14:44:16.135Z,4.70
2018-10-12T14:46:44.511Z,4.37
2018-10-12T14:49:13.016Z,3.97
2018-10-12T14:51:41.586Z,3.80
2018-10-12T14:54:10.089Z,3.50
2018-10-12T14:56:38.704Z,3.40
2018-10-12T14:59:07.260Z,3.73
2018-10-12T15:01:35.812Z,3.70
2018-10-12T15:04:04.553Z,3.67
2018-10-12T15:06:33.102Z,3.50
2018-10-12T15:09:01.629Z,3.80
2018-10-12T15:11:30.203Z,3.30
2018-10-12T15:13:58.712Z,3.63
2018-10-12T15:16:27.250Z,3.30
2018-10-12T15:18:55.793Z,4.23
2018-10-12T15:21:24.557Z,3.83
2018-10-12T15:23:52.870Z,3.50
2018-10-12T15:26:21.394Z,3.47
2018-10-12T15:28:49.944Z,3.27
2018-10-12T15:31:18.479Z,3.20
2018-10-12T15:33:46.992Z,3.50
2018-10-12T15:36:15.531Z,3.50
2018-10-12T15:38:44.094Z,4.10
2018-10-12T15:41:12.777Z,3.57
2018-10-12T15:43:41.304Z,3.40
2018-10-12T15:46:09.863Z,3.10
2018-10-12T15:48:38.398Z,3.27
2018-10-12T15:51:07.000Z,3.30
2018-10-12T15:53:35.480Z,3.30
2018-10-12T15:56:04.043Z,3.50
2018-10-12T15:58:32.563Z,3.63
2018-10-12T16:01:01.111Z,3.60
2018-10-12T16:03:29.634Z,3.37
2018-10-12T16:05:58.190Z,3.50
2018-10-12T16:08:26.700Z,3.90
2018-10-12T16:10:55.258Z,3.73
2018-10-12T16:13:23.816Z,3.93
2018-10-12T16:15:52.340Z,3.67
2018-10-12T16:18:20.863Z,3.83
2018-10-12T16:20:49.376Z,3.70
2018-10-12T16:23:17.924Z,3.60
2018-10-12T16:25:58.942Z,4.80
2018-10-12T16:28:27.475Z,3.90
2018-10-12T16:30:56.525Z,4.20
2018-10-12T16:33:25.188Z,4.20
2018-10-12T16:35:55.112Z,4.30
2018-10-12T16:38:23.665Z,4.50
2018-10-12T16:40:52.187Z,4.53
2018-10-12T16:43:20.750Z,4.40
2018-10-12T16:45:50.379Z,4.30
2018-10-12T16:48:18.946Z,4.03
2018-10-12T16:50:47.455Z,4.40
2018-10-12T16:53:16.056Z,4.53
2018-10-12T16:55:44.575Z,4.60
2018-10-12T16:58:14.178Z,5.00
2018-10-12T17:00:42.921Z,4.70
2018-10-12T17:03:11.570Z,4.63
2018-10-12T17:05:40.100Z,5.00
2018-10-12T17:08:08.638Z,5.03
2018-10-12T17:10:37.280Z,5.07
2018-10-12T17:13:05.930Z,4.97
2018-10-12T17:15:34.447Z,5.20
2018-10-12T17:18:02.993Z,4.90
2018-10-12T17:20:31.501Z,5.60
2018-10-12T17:23:00.054Z,5.37
2018-10-12T17:25:28.574Z,5.73
2018-10-12T17:27:57.105Z,5.53
2018-10-12T17:30:25.788Z,5.40
2018-10-12T17:32:54.320Z,5.30
2018-10-12T17:35:22.864Z,5.10
2018-10-12T17:37:51.400Z,6.17
2018-10-12T17:40:19.891Z,5.90
2018-10-12T17:42:48.429Z,6.13
2018-10-12T17:45:16.962Z,5.23
2018-10-12T17:47:45.522Z,6.67
2018-10-12T17:50:14.030Z,6.00
2018-10-12T17:52:42.568Z,6.50
2018-10-12T17:55:11.077Z,6.00
2018-10-12T17:57:39.625Z,6.90
2018-10-12T18:00:09.329Z,6.70
2018-10-12T18:02:38.019Z,5.83
2018-10-12T18:05:06.900Z,6.10
2018-10-12T18:07:35.453Z,6.90
2018-10-12T18:10:04.059Z,6.90
2018-10-12T18:12:32.588Z,6.47
2018-10-12T18:15:01.103Z,5.40
2018-10-12T18:17:29.643Z,6.07
2018-10-12T18:19:58.146Z,5.97
2018-10-12T18:22:26.694Z,6.03
2018-10-12T18:24:55.201Z,6.23
2018-10-12T18:27:23.703Z,7.00
2018-10-12T18:29:52.240Z,6.73
2018-10-12T18:32:20.737Z,6.87
2018-10-12T18:34:49.298Z,7.00
2018-10-12T18:37:17.814Z,6.67
2018-10-12T18:39:46.347Z,6.90
2018-10-12T18:42:14.853Z,6.27
2018-10-12T18:44:43.403Z,6.63
2018-10-12T18:47:11.925Z,6.70
2018-10-12T18:49:40.461Z,6.83
2018-10-12T18:52:09.281Z,7.70
2018-10-12T18:54:37.807Z,6.80
2018-10-12T18:57:06.319Z,6.20
2018-10-12T18:59:34.862Z,7.70
2018-10-12T19:02:03.397Z,6.20
2018-10-12T19:04:32.389Z,6.87
2018-10-12T19:07:00.865Z,8.33
2018-10-12T19:09:29.405Z,7.57
2018-10-12T19:11:57.927Z,7.20
2018-10-12T19:14:26.494Z,6.80
2018-10-12T19:16:55.082Z,7.93
2018-10-12T19:19:23.676Z,8.27
2018-10-12T19:21:52.210Z,6.70
2018-10-12T19:24:20.766Z,7.10
2018-10-12T19:26:49.276Z,8.30
2018-10-12T19:29:17.807Z,8.37
2018-10-12T19:31:46.329Z,7.37
2018-10-12T19:34:14.930Z,6.60
2018-10-12T19:36:43.451Z,7.30
2018-10-12T19:39:11.977Z,7.17
2018-10-12T19:41:40.487Z,8.73
2018-10-12T19:44:09.736Z,7.43
2018-10-12T19:46:38.252Z,8.43
2018-10-12T19:49:06.785Z,9.00
2018-10-12T19:51:35.300Z,6.87
2018-10-12T19:54:03.867Z,7.50
2018-10-12T19:56:32.378Z,7.40
2018-10-12T19:59:00.938Z,7.50
2018-10-12T20:01:29.463Z,7.93
2018-10-12T20:03:58.010Z,7.37
2018-10-12T20:06:26.526Z,7.43
2018-10-12T20:08:55.058Z,7.63
2018-10-12T20:11:23.574Z,8.37
2018-10-12T20:13:52.104Z,8.33
2018-10-12T20:16:20.614Z,8.97
2018-10-12T20:18:49.164Z,8.77
2018-10-12T20:21:17.750Z,8.43
2018-10-12T20:23:46.294Z,7.87
2018-10-12T20:26:14.818Z,8.17
2018-10-12T20:28:43.355Z,9.13
2018-10-12T20:31:11.926Z,8.50
2018-10-12T20:33:40.438Z,7.97
2018-10-12T20:36:08.973Z,7.30
2018-10-12T20:38:37.569Z,7.63
2018-10-12T20:41:06.139Z,9.17
2018-10-12T20:43:34.679Z,9.27
2018-10-12T20:46:03.224Z,9.83
2018-10-12T20:48:31.766Z,8.50
2018-10-12T20:51:00.278Z,9.63
2018-10-12T20:53:28.816Z,9.70
2018-10-12T20:55:57.366Z,8.73
2018-10-12T20:58:25.908Z,8.60
2018-10-12T21:00:54.429Z,9.10
2018-10-12T21:03:22.976Z,8.77
2018-10-12T21:05:51.495Z,8.50
2018-10-12T21:08:20.010Z,8.30
2018-10-12T21:10:48.564Z,7.90
2018-10-12T21:13:17.068Z,7.50
2018-10-12T21:15:45.589Z,7.70
2018-10-12T21:18:14.144Z,6.00
2018-10-12T21:20:42.675Z,6.67
2018-10-12T21:23:11.174Z,6.57
2018-10-12T21:25:39.681Z,6.97
2018-10-12T21:28:08.223Z,7.63
2018-10-12T21:30:36.764Z,7.00
2018-10-12T21:33:05.267Z,7.50
2018-10-12T21:35:33.809Z,8.13
2018-10-12T21:38:02.344Z,9.87
2018-10-12T21:40:30.906Z,9.20
2018-10-12T21:42:59.423Z,10.47
2018-10-12T21:45:27.966Z,10.47
2018-10-12T21:47:56.692Z,10.83
2018-10-12T21:50:25.275Z,11.40
2018-10-12T21:52:53.796Z,12.10
2018-10-12T21:55:22.332Z,11.40
2018-10-12T21:57:50.838Z,10.80
2018-10-12T22:00:19.396Z,11.17
2018-10-12T22:02:47.910Z,9.30
2018-10-12T22:05:16.447Z,10.60
2018-10-12T22:07:44.964Z,10.27
2018-10-12T22:10:13.510Z,10.70
2018-10-12T22:12:42.096Z,8.20
2018-10-12T22:15:10.636Z,9.10
2018-10-12T22:17:39.140Z,8.53
2018-10-12T22:20:07.709Z,10.00
2018-10-12T22:22:36.223Z,9.33
2018-10-12T22:25:04.818Z,10.90
2018-10-12T22:27:33.328Z,9.00
2018-10-12T22:30:01.867Z,9.43
2018-10-12T22:32:30.399Z,9.87
2018-10-12T22:34:58.972Z,9.47
2018-10-12T22:37:27.515Z,10.77
2018-10-12T22:39:56.079Z,11.40
2018-10-12T22:42:24.589Z,10.30
2018-10-12T22:44:53.134Z,10.10
2018-10-12T22:47:21.649Z,9.27
2018-10-12T22:49:50.306Z,8.60
2018-10-12T22:52:18.838Z,9.27
2018-10-12T22:54:47.376Z,9.70
2018-10-12T22:57:15.917Z,9.73
2018-10-12T22:59:44.462Z,10.03
2018-10-12T23:02:12.989Z,10.07
2018-10-12T23:04:41.511Z,10.00
2018-10-12T23:07:10.056Z,10.63
2018-10-12T23:09:38.568Z,9.50
2018-10-12T23:12:07.118Z,9.77
2018-10-12T23:14:35.626Z,9.53
2018-10-12T23:17:04.178Z,10.70
2018-10-12T23:19:32.690Z,10.60
2018-10-12T23:22:01.251Z,11.30
2018-10-12T23:24:29.778Z,10.90
2018-10-12T23:26:58.365Z,7.73
2018-10-12T23:29:26.941Z,9.47
2018-10-12T23:31:55.477Z,8.63
2018-10-12T23:34:24.018Z,9.90
2018-10-12T23:36:52.577Z,9.63
2018-10-12T23:39:21.095Z,8.73
2018-10-12T23:41:49.636Z,10.30
2018-10-12T23:44:18.145Z,10.17
2018-10-12T23:46:46.685Z,10.00
2018-10-12T23:49:15.215Z,9.73
2018-10-12T23:51:43.751Z,9.27
2018-10-12T23:54:12.269Z,10.13
2018-10-12T23:56:40.822Z,8.03
2018-10-12T23:59:09.342Z,8.47
